Terminal Aerodrome Forecast
Issued by NWS

Home | Current Version | Previous Version | Graphics & Text | Print | Product List | Glossary On
Versions: 1 2 3 4 5 6 7 8 9 10 11 12 13 14 15 16 17 18 19 20 21 22 23 24 25 26 27 28 29 30 31 32 33
000
FTUS43 KLOT 241600 AAC
TAFDPA
TAF AMD
KDPA 241603Z 2416/2512 13008KT P6SM SCT015 BKN250
     FM250100 15006KT P6SM FEW025
     FM250800 VRB02KT 4SM BR BCFG FEW250=

USA.gov is the U.S. government's official web portal to all federal, state and local government web resources and services.